CheckWX is a tool to help pilots better visualize weather data.  It is not intended as a substitute for an official pre-flight weather briefing.

10:32:58 UTC

ENKB TAF
Kristiansund , Kvernberget Airport
Kvernberget, Norway
TAF ENKB 260800Z 2609/2618 28008KT 9999 BKN020

Jun-26@
09:00 UTC

Jun-26 @ 09:00 UTC

Jun-26@
18:00 UTC

Jun-26 @ 18:00 UTC

TAF ENKB 260800Z 2609/2618 28008KT 9999 BKN020
Wind
  • 280° at 8 KTS
Cloud Levels
  • Broken at 2,000' AGL